Time;durP1;ratioP1;P1;durP2;ratioP2;P2;SDS_P1;SDS_P2;PMS_P1;PMS_P2;Temp;Humidity;BMP_temperature;BMP_pressure;BME280_temperature;BME280_humidity;BME280_pressure;Samples;Min_cycle;Max_cycle;Signal;HPM_P1;HPM_P2
2023/03/01 00:00:54;;;;;;;22.15;10.90;;;;;;;1.13;100.00;103172.78;5071935;28;20032;-50
2023/03/01 00:03:19;;;;;;;18.58;11.55;;;;;;;1.10;100.00;103165.81;5071950;28;20028;-51
2023/03/01 00:05:45;;;;;;;18.75;10.77;;;;;;;1.09;100.00;103177.38;5072099;28;20012;-51
2023/03/01 00:08:11;;;;;;;18.05;10.70;;;;;;;1.16;100.00;103174.44;5071754;28;20033;-52
2023/03/01 00:10:37;;;;;;;20.10;10.95;;;;;;;1.16;100.00;103177.09;5071448;28;20032;-50
2023/03/01 00:13:04;;;;;;;22.15;11.95;;;;;;;1.07;100.00;103173.06;5071376;28;20563;-52
2023/03/01 00:15:30;;;;;;;20.08;11.48;;;;;;;1.05;100.00;103177.56;5073507;28;20471;-50
2023/03/01 00:17:55;;;;;;;22.25;11.45;;;;;;;1.00;100.00;103172.47;5072715;28;20128;-50
2023/03/01 00:20:21;;;;;;;23.38;11.32;;;;;;;1.00;100.00;103172.47;5072396;28;20107;-50
2023/03/01 00:22:46;;;;;;;24.70;12.32;;;;;;;1.03;100.00;103161.72;5072281;28;20056;-54
2023/03/01 00:25:11;;;;;;;25.98;12.88;;;;;;;1.03;100.00;103167.03;5071643;28;20548;-52
2023/03/01 00:27:37;;;;;;;22.73;12.55;;;;;;;1.02;100.00;103165.28;5071428;28;20433;-51
2023/03/01 00:30:02;;;;;;;20.73;12.05;;;;;;;1.04;100.00;103158.13;5071371;28;20020;-52
2023/03/01 00:32:28;;;;;;;21.92;12.82;;;;;;;1.07;100.00;103157.13;5071057;28;20035;-52
2023/03/01 00:34:56;;;;;;;26.55;13.25;;;;;;;1.04;100.00;103158.13;5071147;28;20059;-51
2023/03/01 00:37:22;;;;;;;23.48;13.38;;;;;;;1.01;100.00;103154.75;5071239;28;20032;-51
2023/03/01 00:39:47;;;;;;;25.15;13.68;;;;;;;1.00;100.00;103156.56;5070894;28;20029;-51
2023/03/01 00:42:12;;;;;;;23.73;12.85;;;;;;;0.99;100.00;103164.56;5071215;28;20025;-52
2023/03/01 00:44:38;;;;;;;27.98;14.27;;;;;;;0.99;100.00;103165.41;5068502;28;20116;-51
2023/03/01 00:47:03;;;;;;;30.42;15.18;;;;;;;1.01;100.00;103168.00;5070278;28;20047;-50
2023/03/01 00:49:29;;;;;;;32.08;14.90;;;;;;;0.94;100.00;103161.22;5068799;28;20017;-53
2023/03/01 00:51:54;;;;;;;27.50;14.82;;;;;;;0.96;100.00;103162.03;5069429;28;20028;-53
2023/03/01 00:54:19;;;;;;;31.50;15.10;;;;;;;0.98;100.00;103158.38;5070369;28;20027;-50
2023/03/01 00:56:45;;;;;;;33.63;15.07;;;;;;;0.94;100.00;103156.78;5069667;28;20025;-51
2023/03/01 00:59:10;;;;;;;29.95;15.93;;;;;;;0.88;100.00;103163.19;5070932;28;20419;-51
2023/03/01 01:01:35;;;;;;;34.38;15.85;;;;;;;0.90;100.00;103163.16;5070910;28;20624;-50
2023/03/01 01:04:07;;;;;;;29.65;16.35;;;;;;;0.85;100.00;103158.03;5071700;28;20036;-54
2023/03/01 01:06:35;;;;;;;32.88;15.15;;;;;;;0.86;100.00;103161.53;5070732;28;20078;-54
2023/03/01 01:09:01;;;;;;;33.78;17.02;;;;;;;0.82;100.00;103162.59;5070742;28;20021;-50
2023/03/01 01:11:28;;;;;;;33.53;15.88;;;;;;;0.81;100.00;103156.41;5070571;28;20116;-51
2023/03/01 01:13:54;;;;;;;33.03;16.63;;;;;;;0.84;100.00;103160.72;5070512;28;20024;-48
2023/03/01 01:16:22;;;;;;;34.95;17.27;;;;;;;0.83;100.00;103148.41;5068569;28;20029;-51
2023/03/01 01:18:47;;;;;;;38.85;17.15;;;;;;;0.81;100.00;103159.06;5068583;28;20045;-51
2023/03/01 01:21:15;;;;;;;33.53;17.13;;;;;;;0.86;100.00;103156.22;5070819;28;20025;-50
2023/03/01 01:23:41;;;;;;;37.58;18.23;;;;;;;0.78;100.00;103158.31;5070659;28;20477;-50
2023/03/01 01:26:08;;;;;;;36.85;17.27;;;;;;;0.72;100.00;103167.38;5070600;28;20020;-49
2023/03/01 01:28:33;;;;;;;51.15;18.67;;;;;;;0.70;100.00;103163.06;5070325;28;20025;-50
2023/03/01 01:30:59;;;;;;;42.17;19.05;;;;;;;0.67;100.00;103142.00;5070639;28;20041;-49
2023/03/01 01:33:25;;;;;;;40.13;19.48;;;;;;;0.71;100.00;103140.94;5071221;28;20082;-49
2023/03/01 01:35:50;;;;;;;38.33;17.88;;;;;;;0.70;100.00;103136.56;5069674;28;20032;-49
2023/03/01 01:38:15;;;;;;;39.80;19.00;;;;;;;0.70;100.00;103141.88;5071197;28;20048;-51
2023/03/01 01:40:45;;;;;;;40.25;19.20;;;;;;;0.68;100.00;103131.31;5070534;28;20486;-50
2023/03/01 01:43:22;;;;;;;42.22;19.63;;;;;;;0.61;100.00;103132.50;5071357;28;20367;-52
2023/03/01 01:45:47;;;;;;;43.17;20.35;;;;;;;0.61;100.00;103128.06;5070792;28;20033;-51
2023/03/01 01:48:19;;;;;;;50.63;20.00;;;;;;;0.59;100.00;103123.75;5070805;28;20114;-50
2023/03/01 01:50:47;;;;;;;45.00;20.42;;;;;;;0.59;100.00;103115.81;5070791;28;20024;-53
2023/03/01 01:53:14;;;;;;;;;;;;;;;0.57;100.00;103112.34;5072398;28;20029;-50
2023/03/01 01:55:42;;;;;;;49.45;21.70;;;;;;;0.55;100.00;103100.94;5072346;28;19931;-53
2023/03/01 01:58:09;;;;;;;49.88;22.67;;;;;;;0.49;100.00;103102.03;5076441;28;20036;-50
2023/03/01 02:00:35;;;;;;;51.45;21.88;;;;;;;0.50;100.00;103103.78;5076102;28;20020;-51
2023/03/01 02:03:04;;;;;;;45.58;20.88;;;;;;;0.46;100.00;103106.63;5076361;28;20017;-48
2023/03/01 02:05:47;;;;;;;52.28;22.88;;;;;;;0.39;100.00;103100.69;5075603;28;20665;-50
2023/03/01 02:08:14;;;;;;;62.45;22.83;;;;;;;0.33;100.00;103096.50;5073973;28;20031;-52
2023/03/01 02:10:41;;;;;;;51.88;23.15;;;;;;;0.35;100.00;103104.38;5072556;28;20032;-50
2023/03/01 02:13:06;;;;;;;57.95;22.58;;;;;;;0.32;100.00;103101.88;5073157;28;20031;-49
2023/03/01 02:15:33;;;;;;;52.88;21.80;;;;;;;0.32;100.00;103100.06;5074048;28;20024;-51
2023/03/01 02:17:59;;;;;;;56.17;24.57;;;;;;;0.25;100.00;103100.38;5073686;28;20045;-52
2023/03/01 02:21:22;;;;;;;57.88;23.55;;;;;;;0.25;100.00;103095.94;5072281;28;20027;-50
2023/03/01 02:23:47;;;;;;;56.13;22.52;;;;;;;0.28;100.00;103097.59;4991966;28;20034;-51
2023/03/01 02:26:30;;;;;;;63.58;25.00;;;;;;;0.28;100.00;103095.81;4991572;28;20027;-49
2023/03/01 02:28:56;;;;;;;59.33;24.25;;;;;;;0.29;100.00;103088.72;5048439;28;20142;-52
2023/03/01 02:31:56;;;;;;;63.20;26.40;;;;;;;0.26;100.00;103088.84;5072082;28;20041;-51
2023/03/01 02:34:18;;;;;;;57.58;24.60;;;;;;;0.28;100.00;103100.25;5070922;28;20119;-51
2023/03/01 02:36:46;;;;;;;68.82;25.90;;;;;;;0.29;100.00;103096.66;5055045;28;20021;-50
2023/03/01 02:39:16;;;;;;;;;;;;;;;0.18;100.00;103100.59;5073543;28;20025;-49
2023/03/01 02:41:46;;;;;;;70.28;26.20;;;;;;;0.17;100.00;103090.94;5071627;28;19912;-50
2023/03/01 02:44:11;;;;;;;63.25;27.10;;;;;;;0.16;100.00;103091.88;5072839;28;20030;-51
2023/03/01 02:46:43;;;;;;;77.43;28.67;;;;;;;0.14;100.00;103095.50;5073035;28;20024;-50
2023/03/01 02:49:21;;;;;;;77.63;29.08;;;;;;;0.16;100.00;103099.81;5073123;28;20116;-51
2023/03/01 02:51:56;;;;;;;;;;;;;;;0.12;100.00;103092.03;5073575;28;20032;-49
2023/03/01 02:54:34;;;;;;;66.57;27.63;;;;;;;0.07;100.00;103076.31;5071770;28;20273;-49
2023/03/01 02:56:59;;;;;;;80.45;28.30;;;;;;;0.09;100.00;103076.25;5072853;28;20056;-49
2023/03/01 02:59:29;;;;;;;87.30;31.35;;;;;;;0.10;100.00;103083.28;5072842;28;20434;-51
2023/03/01 03:01:54;;;;;;;75.28;29.38;;;;;;;0.11;100.00;103082.38;5071534;28;20657;-52
2023/03/01 03:04:20;;;;;;;77.05;29.75;;;;;;;0.10;100.00;103080.63;5072722;28;20308;-50
2023/03/01 03:06:47;;;;;;;78.88;30.38;;;;;;;0.07;100.00;103073.66;5071961;28;20024;-50
2023/03/01 03:09:13;;;;;;;77.35;30.80;;;;;;;0.05;100.00;103072.84;5072427;28;20489;-52
2023/03/01 03:11:40;;;;;;;80.88;30.92;;;;;;;0.02;100.00;103069.47;5072318;28;20394;-49
2023/03/01 03:14:12;;;;;;;88.38;31.48;;;;;;;0.01;100.00;103073.91;5072751;28;20121;-51
2023/03/01 03:16:41;;;;;;;80.50;30.58;;;;;;;-0.04;100.00;103066.13;5071880;28;20060;-51
2023/03/01 03:19:07;;;;;;;80.10;32.90;;;;;;;-0.05;100.00;103064.41;5072940;28;20149;-50
2023/03/01 03:21:33;;;;;;;79.82;32.00;;;;;;;0.01;100.00;103059.81;5072299;28;20052;-51
2023/03/01 03:23:58;;;;;;;83.70;30.50;;;;;;;-0.03;100.00;103067.00;5072557;28;20017;-50
2023/03/01 03:26:24;;;;;;;83.80;31.33;;;;;;;-0.12;100.00;103051.47;5072798;28;20028;-49
2023/03/01 03:28:49;;;;;;;85.00;31.83;;;;;;;-0.16;100.00;103058.66;5072917;28;20107;-52
2023/03/01 03:31:15;;;;;;;90.03;33.13;;;;;;;-0.19;100.00;103060.56;5072243;28;20038;-53
2023/03/01 03:33:40;;;;;;;97.68;33.78;;;;;;;-0.27;100.00;103056.41;5072145;28;20029;-50
2023/03/01 03:36:06;;;;;;;89.32;34.05;;;;;;;-0.33;100.00;103047.84;5072571;28;20029;-51
2023/03/01 03:38:31;;;;;;;87.55;33.20;;;;;;;-0.27;100.00;103051.13;5072100;28;20039;-50
2023/03/01 03:41:07;;;;;;;93.18;33.50;;;;;;;-0.28;100.00;103052.06;5071821;28;20565;-50
2023/03/01 03:43:34;;;;;;;88.63;33.45;;;;;;;-0.24;100.00;103058.97;5072121;28;20029;-51
2023/03/01 03:45:59;;;;;;;90.28;33.35;;;;;;;-0.22;100.00;103062.41;5072436;28;20043;-50
2023/03/01 03:48:25;;;;;;;96.60;35.17;;;;;;;-0.22;100.00;103062.41;5072649;28;20059;-50
2023/03/01 03:50:55;;;;;;;89.63;34.03;;;;;;;-0.23;100.00;103059.81;5072063;28;20035;-50
2023/03/01 03:53:22;;;;;;;90.13;35.28;;;;;;;-0.28;100.00;103049.41;5072235;28;20043;-53
2023/03/01 03:55:51;;;;;;;95.13;34.45;;;;;;;-0.22;100.00;103062.41;5072684;28;20020;-51
2023/03/01 03:58:19;;;;;;;107.90;35.50;;;;;;;-0.22;100.00;103053.59;5072213;28;20060;-52
2023/03/01 04:00:46;;;;;;;105.78;35.38;;;;;;;-0.23;100.00;103058.03;5071881;28;20031;-52
2023/03/01 04:03:13;;;;;;;96.07;35.50;;;;;;;-0.25;100.00;103051.94;5071859;28;20099;-49
2023/03/01 04:05:39;;;;;;;112.97;36.55;;;;;;;-0.34;100.00;103048.75;5071536;28;20029;-51
2023/03/01 04:08:08;;;;;;;99.10;36.55;;;;;;;-0.39;100.00;103054.25;5071462;28;20029;-50
2023/03/01 04:10:37;;;;;;;108.95;36.53;;;;;;;-0.46;100.00;103058.03;5071531;28;20432;-50
2023/03/01 04:13:03;;;;;;;101.18;35.40;;;;;;;-0.50;100.00;103053.75;5071476;28;20101;-52
2023/03/01 04:15:28;;;;;;;105.10;37.00;;;;;;;-0.52;100.00;103053.81;5072015;28;20028;-51
2023/03/01 04:17:54;;;;;;;117.55;39.05;;;;;;;-0.55;100.00;103053.06;5071087;28;20051;-49
2023/03/01 04:20:26;;;;;;;107.05;37.08;;;;;;;-0.57;100.00;103049.63;5071269;28;20081;-50
2023/03/01 04:22:53;;;;;;;112.32;37.85;;;;;;;-0.54;100.00;103049.50;5073204;28;20039;-50
2023/03/01 04:25:19;;;;;;;107.60;37.38;;;;;;;-0.55;100.00;103050.44;5073894;28;20032;-50
2023/03/01 04:27:44;;;;;;;105.70;37.40;;;;;;;-0.60;100.00;103047.09;5073987;28;20017;-50
2023/03/01 04:30:10;;;;;;;114.22;38.10;;;;;;;-0.65;100.00;103041.09;5073209;28;20143;-51
2023/03/01 04:32:36;;;;;;;121.53;40.20;;;;;;;-0.67;100.00;103043.78;5072640;28;20023;-50
2023/03/01 04:35:01;;;;;;;121.38;40.25;;;;;;;-0.68;100.00;103050.00;5072597;28;20017;-50
2023/03/01 04:37:27;;;;;;;117.75;39.30;;;;;;;-0.67;100.00;103044.66;5071230;28;20422;-52
2023/03/01 04:39:52;;;;;;;113.32;39.78;;;;;;;-0.68;100.00;103045.56;5072171;28;20520;-51
2023/03/01 04:42:18;;;;;;;117.00;39.85;;;;;;;-0.62;100.00;103039.19;5072931;28;20025;-52
2023/03/01 04:44:44;;;;;;;121.20;40.60;;;;;;;-0.64;100.00;103038.38;5072847;28;20059;-50
2023/03/01 04:47:10;;;;;;;132.88;41.28;;;;;;;-0.66;100.00;103040.22;5072495;28;20099;-49
2023/03/01 04:49:36;;;;;;;121.05;39.60;;;;;;;-0.69;100.00;103027.97;5071177;28;20043;-50
2023/03/01 04:52:04;;;;;;;114.47;39.70;;;;;;;-0.67;100.00;103022.63;5072517;28;20382;-50
2023/03/01 04:54:32;;;;;;;;;;;;;;;-0.68;100.00;103018.28;5073642;28;20044;-48
2023/03/01 04:56:58;;;;;;;120.72;41.33;;;;;;;-0.71;100.00;103021.00;5072536;28;19919;-55
2023/03/01 04:59:24;;;;;;;131.57;43.83;;;;;;;-0.61;100.00;103010.97;5073189;28;20542;-51
2023/03/01 05:01:50;;;;;;;133.18;45.13;;;;;;;-0.59;100.00;103009.13;5072931;28;20031;-52
2023/03/01 05:04:16;;;;;;;134.35;43.25;;;;;;;-0.60;100.00;103008.28;5072851;28;20024;-53
2023/03/01 05:06:42;;;;;;;130.65;44.40;;;;;;;-0.65;100.00;103006.72;5072633;28;20358;-50
2023/03/01 05:09:07;;;;;;;141.98;44.90;;;;;;;-0.65;100.00;103001.44;5072614;28;20115;-51
2023/03/01 05:11:35;;;;;;;134.40;44.72;;;;;;;-0.71;100.00;103002.50;5072046;28;20024;-51
2023/03/01 05:14:02;;;;;;;134.82;44.30;;;;;;;-0.71;100.00;103007.78;5072130;28;20033;-50
2023/03/01 05:16:27;;;;;;;139.98;44.35;;;;;;;-0.71;100.00;103006.03;5072304;28;20028;-50
2023/03/01 05:18:52;;;;;;;133.63;43.42;;;;;;;-0.69;100.00;103004.16;5071786;28;20059;-52
2023/03/01 05:21:21;;;;;;;139.02;46.08;;;;;;;-0.67;100.00;103006.75;5071709;28;20028;-53
2023/03/01 05:23:46;;;;;;;141.52;47.10;;;;;;;-0.70;100.00;103007.75;5072084;28;20500;-51
2023/03/01 05:26:12;;;;;;;144.50;46.20;;;;;;;-0.74;100.00;102999.97;5071437;28;20028;-52
2023/03/01 05:28:37;;;;;;;152.50;47.50;;;;;;;-0.79;100.00;103008.09;5070945;28;20032;-51
2023/03/01 05:31:09;;;;;;;150.73;48.97;;;;;;;-0.81;100.00;103001.97;5073914;28;20036;-52
2023/03/01 05:33:35;;;;;;;158.63;47.13;;;;;;;-0.85;100.00;102997.72;5075400;28;20033;-51
2023/03/01 05:36:01;;;;;;;157.02;46.85;;;;;;;-0.86;100.00;102995.13;5075747;28;20289;-50
2023/03/01 05:38:26;;;;;;;173.73;50.13;;;;;;;-0.89;100.00;102990.81;5075838;28;20020;-49
2023/03/01 05:40:51;;;;;;;151.07;47.03;;;;;;;-0.94;100.00;102987.47;5075881;28;20120;-51
2023/03/01 05:43:17;;;;;;;153.18;48.53;;;;;;;-0.89;100.00;102986.41;5075532;28;20056;-50
2023/03/01 05:45:43;;;;;;;161.60;50.00;;;;;;;-0.87;100.00;102986.31;5075736;28;20048;-51
2023/03/01 05:48:10;;;;;;;158.85;48.08;;;;;;;-0.84;100.00;102983.59;5075362;28;20533;-49
2023/03/01 05:50:37;;;;;;;159.48;48.03;;;;;;;-0.90;100.00;102982.00;5058612;28;20025;-50
2023/03/01 05:53:14;;;;;;;165.50;49.47;;;;;;;-0.84;100.00;102975.66;5077210;28;20028;-50
2023/03/01 05:55:41;;;;;;;152.02;49.72;;;;;;;-0.77;100.00;102974.50;5074647;28;20371;-53
2023/03/01 05:58:16;;;;;;;152.80;45.38;;;;;;;-0.82;100.00;102971.16;5074118;28;20040;-51
2023/03/01 06:00:42;;;;;;;155.95;48.35;;;;;;;-0.76;100.00;102970.97;5074804;28;20381;-49
2023/03/01 06:03:09;;;;;;;150.95;46.38;;;;;;;-0.70;100.00;102969.88;5075736;28;20032;-50
2023/03/01 06:05:35;;;;;;;161.43;49.45;;;;;;;-0.68;100.00;102968.88;5076068;28;20119;-49
2023/03/01 06:08:01;;;;;;;144.57;46.58;;;;;;;-0.65;100.00;102965.28;5075571;28;20092;-50
2023/03/01 06:10:26;;;;;;;143.55;45.47;;;;;;;-0.68;100.00;102966.25;5076557;28;20058;-49
2023/03/01 06:12:52;;;;;;;147.80;45.05;;;;;;;-0.71;100.00;102965.47;5076358;28;20021;-50
2023/03/01 06:15:17;;;;;;;148.43;47.80;;;;;;;-0.71;100.00;102955.78;5076709;28;20490;-52
2023/03/01 06:17:44;;;;;;;144.73;46.55;;;;;;;-0.73;100.00;102965.56;5076915;28;20041;-52
2023/03/01 06:20:15;;;;;;;152.25;48.38;;;;;;;-0.75;100.00;102967.38;5077141;28;20025;-50
2023/03/01 06:22:40;;;;;;;155.05;47.30;;;;;;;-0.76;100.00;102965.66;5076158;28;20116;-51
2023/03/01 06:25:07;;;;;;;145.77;47.28;;;;;;;-0.77;100.00;102969.22;5076268;28;20547;-50
2023/03/01 06:27:32;;;;;;;158.50;49.78;;;;;;;-0.73;100.00;102976.13;5076339;28;20670;-51
2023/03/01 06:29:57;;;;;;;166.52;48.00;;;;;;;-0.71;100.00;102973.41;5074930;28;20031;-50
2023/03/01 06:32:23;;;;;;;159.02;49.85;;;;;;;-0.68;100.00;102974.19;5076840;28;20116;-51
2023/03/01 06:34:49;;;;;;;157.63;48.58;;;;;;;-0.70;100.00;102970.72;5076507;28;20044;-52
2023/03/01 06:37:14;;;;;;;165.65;51.05;;;;;;;-0.72;100.00;102972.56;5076695;28;20031;-51
2023/03/01 06:39:40;;;;;;;165.63;49.58;;;;;;;-0.74;100.00;102966.47;5076259;28;20021;-49
2023/03/01 06:42:05;;;;;;;164.70;48.97;;;;;;;-0.74;100.00;102970.88;5074974;28;20067;-51
2023/03/01 06:44:31;;;;;;;169.13;50.80;;;;;;;-0.69;100.00;102969.78;5075218;28;20029;-51
2023/03/01 06:46:56;;;;;;;176.80;49.33;;;;;;;-0.61;100.00;102972.16;5076682;28;20027;-50
2023/03/01 06:49:21;;;;;;;169.05;51.53;;;;;;;-0.43;100.00;102981.19;5075218;28;20028;-51
2023/03/01 06:51:47;;;;;;;158.02;52.20;;;;;;;-0.24;100.00;102982.22;5076102;28;20059;-50
2023/03/01 06:54:13;;;;;;;167.57;49.88;;;;;;;-0.06;100.00;102987.69;5075704;28;20433;-50
2023/03/01 06:56:38;;;;;;;158.02;48.53;;;;;;;0.17;100.00;102979.72;5073857;28;20037;-50
2023/03/01 06:59:04;;;;;;;159.88;50.22;;;;;;;0.50;100.00;102984.56;5074291;28;20028;-50
2023/03/01 07:01:30;;;;;;;146.98;49.47;;;;;;;0.78;100.00;102978.09;5075498;28;20331;-51
2023/03/01 07:03:55;;;;;;;148.07;44.75;;;;;;;0.96;100.00;102984.38;5076185;28;20052;-50
2023/03/01 07:06:21;;;;;;;140.35;46.05;;;;;;;1.06;100.00;102980.41;5075905;28;20475;-50
2023/03/01 07:08:47;;;;;;;137.55;46.38;;;;;;;1.06;100.00;102975.09;5076166;28;20421;-51
2023/03/01 07:11:12;;;;;;;133.88;43.15;;;;;;;1.18;100.00;102968.38;5075766;28;20039;-51
2023/03/01 07:13:38;;;;;;;134.38;45.30;;;;;;;1.35;100.00;102962.31;5075427;28;20104;-51
2023/03/01 07:16:04;;;;;;;133.05;44.10;;;;;;;1.57;100.00;102954.22;5075441;28;20138;-52
2023/03/01 07:18:29;;;;;;;134.30;45.83;;;;;;;1.90;100.00;102949.13;5075292;28;20052;-51
2023/03/01 07:20:54;;;;;;;119.63;41.88;;;;;;;2.30;100.00;102956.00;5075901;28;20398;-50
2023/03/01 07:23:20;;;;;;;111.78;39.20;;;;;;;2.56;100.00;102943.22;5077209;28;20042;-51
2023/03/01 07:25:54;;;;;;;115.45;39.03;;;;;;;2.91;100.00;102946.69;5076502;28;20127;-50
2023/03/01 07:28:19;;;;;;;100.90;35.92;;;;;;;3.27;100.00;102937.72;5074488;28;20090;-50
2023/03/01 07:30:45;;;;;;;107.72;38.55;;;;;;;3.49;100.00;102940.03;5072797;28;20351;-49
2023/03/01 07:33:10;;;;;;;97.93;34.25;;;;;;;3.58;100.00;102931.56;5072988;28;20363;-51
2023/03/01 07:35:35;;;;;;;98.55;36.22;;;;;;;3.82;100.00;102934.66;5073458;28;20035;-50
2023/03/01 07:38:01;;;;;;;87.97;32.58;;;;;;;4.08;100.00;102935.84;5073644;28;20580;-50
2023/03/01 07:40:26;;;;;;;85.88;33.85;;;;;;;4.13;100.00;102931.09;5073334;28;20055;-50
2023/03/01 07:42:58;;;;;;;90.03;33.40;;;;;;;4.46;100.00;102926.56;5073507;28;20020;-50
2023/03/01 07:45:24;;;;;;;85.57;32.53;;;;;;;4.95;100.00;102932.47;5069816;28;20446;-50
2023/03/01 07:47:51;;;;;;;78.28;32.22;;;;;;;5.66;100.00;102936.03;5072248;28;20188;-50
2023/03/01 07:50:17;;;;;;;79.03;30.92;;;;;;;6.07;100.00;102929.84;5072253;28;20033;-49
2023/03/01 07:52:45;;;;;;;76.85;29.75;;;;;;;6.43;100.00;102931.03;5063749;28;20032;-50
2023/03/01 07:55:10;;;;;;;68.72;30.73;;;;;;;7.37;100.00;102928.03;5073359;28;20035;-51
2023/03/01 07:57:36;;;;;;;70.35;29.33;;;;;;;8.31;100.00;102922.03;5072218;28;20060;-51
2023/03/01 08:00:01;;;;;;;63.83;26.25;;;;;;;8.98;100.00;102922.25;5071760;28;20016;-53
2023/03/01 08:02:26;;;;;;;58.95;26.88;;;;;;;10.16;96.79;102924.38;5072287;28;20422;-51
2023/03/01 08:04:52;;;;;;;55.72;25.50;;;;;;;11.14;87.07;102916.88;5072327;28;20039;-50
2023/03/01 08:07:17;;;;;;;58.85;26.95;;;;;;;11.44;77.29;102920.53;5071476;28;20021;-52
2023/03/01 08:09:42;;;;;;;56.92;25.58;;;;;;;12.21;69.69;102917.13;5071868;28;20025;-52
2023/03/01 08:12:08;;;;;;;54.90;24.42;;;;;;;12.60;65.83;102921.66;5061464;28;20016;-52
2023/03/01 08:14:33;;;;;;;50.00;24.38;;;;;;;12.80;63.76;102911.69;5071219;28;20021;-53
2023/03/01 08:16:58;;;;;;;45.55;24.10;;;;;;;13.27;59.55;102920.66;5071066;28;20070;-51
2023/03/01 08:19:24;;;;;;;52.00;25.52;;;;;;;13.26;59.61;102912.66;5071602;28;20086;-53
2023/03/01 08:21:49;;;;;;;51.30;25.33;;;;;;;13.52;57.76;102923.66;5071164;28;20054;-52
2023/03/01 08:24:15;;;;;;;50.85;26.42;;;;;;;13.82;56.38;102907.13;5069249;28;20494;-53
2023/03/01 08:26:40;;;;;;;56.33;26.45;;;;;;;13.85;57.04;102911.38;5068401;28;20066;-52
2023/03/01 08:29:06;;;;;;;69.28;28.10;;;;;;;13.28;56.36;102911.53;5068519;28;20030;-51
2023/03/01 08:31:37;;;;;;;56.20;26.35;;;;;;;13.88;55.17;102907.50;5068392;28;20031;-51
2023/03/01 08:34:05;;;;;;;60.75;28.23;;;;;;;13.43;55.12;102908.31;5068829;28;20039;-51
2023/03/01 08:36:34;;;;;;;61.50;29.27;;;;;;;13.22;55.63;102906.72;5071149;28;20020;-51
2023/03/01 08:38:59;;;;;;;57.80;29.15;;;;;;;12.69;56.93;102910.84;5071081;28;20036;-50
2023/03/01 08:41:25;;;;;;;67.50;31.55;;;;;;;12.30;58.77;102904.66;5070472;28;20021;-51
2023/03/01 08:43:52;;;;;;;68.88;31.77;;;;;;;12.85;58.35;102894.03;5070025;28;20027;-51
2023/03/01 08:46:17;;;;;;;65.17;30.77;;;;;;;12.40;58.63;102901.91;5069922;28;20040;-51
2023/03/01 08:48:43;;;;;;;61.97;30.17;;;;;;;12.57;58.62;102905.75;5070226;28;20029;-54
2023/03/01 08:51:18;;;;;;;70.78;31.80;;;;;;;12.34;60.82;102895.25;5069686;28;20024;-53
2023/03/01 08:53:44;;;;;;;76.45;32.83;;;;;;;11.97;58.95;102903.22;5068100;28;20509;-51
2023/03/01 08:56:10;;;;;;;63.50;30.40;;;;;;;12.88;59.28;102898.28;5070913;28;20052;-51
2023/03/01 08:58:36;;;;;;;65.28;31.50;;;;;;;12.88;59.55;102896.44;5069129;28;20439;-53
2023/03/01 09:01:07;;;;;;;64.35;30.63;;;;;;;13.08;58.48;102899.06;5068668;28;20024;-52
2023/03/01 09:03:32;;;;;;;64.85;31.45;;;;;;;13.25;57.11;102908.25;5068832;28;20032;-53
2023/03/01 09:06:01;;;;;;;61.08;30.38;;;;;;;13.22;56.80;102912.13;5069035;28;20605;-50
2023/03/01 09:08:27;;;;;;;66.38;31.05;;;;;;;12.98;57.74;102904.53;5069204;28;20016;-53
2023/03/01 09:10:52;;;;;;;53.42;29.38;;;;;;;12.72;56.46;102910.56;5070068;28;20024;-52
2023/03/01 09:13:18;;;;;;;53.20;28.52;;;;;;;12.10;57.81;102902.94;5070472;28;20109;-53
2023/03/01 09:15:43;;;;;;;58.40;29.17;;;;;;;12.86;58.19;102903.00;5070517;28;20378;-52
2023/03/01 09:18:08;;;;;;;59.95;27.58;;;;;;;13.06;56.36;102901.94;5070683;28;20059;-53
2023/03/01 09:20:34;;;;;;;46.40;25.13;;;;;;;14.28;54.31;102898.91;5070767;28;20025;-52
2023/03/01 09:22:59;;;;;;;47.45;24.33;;;;;;;14.60;50.81;102895.63;5070704;28;20108;-53
2023/03/01 09:25:25;;;;;;;42.00;22.75;;;;;;;14.48;49.41;102904.97;5071194;28;20027;-50
2023/03/01 09:27:51;;;;;;;40.80;22.73;;;;;;;14.07;50.09;102901.94;5070774;28;20031;-53
2023/03/01 09:30:17;;;;;;;44.38;22.40;;;;;;;13.63;50.02;102893.69;5069095;28;20024;-50
2023/03/01 09:32:44;;;;;;;43.90;22.17;;;;;;;13.92;51.42;102892.66;5069859;28;20108;-51
2023/03/01 09:35:10;;;;;;;40.65;21.90;;;;;;;13.91;49.80;102891.81;5070014;28;20048;-52
2023/03/01 09:37:37;;;;;;;32.33;18.73;;;;;;;14.18;47.20;102893.56;5061531;28;20017;-51
2023/03/01 09:40:06;;;;;;;35.40;17.20;;;;;;;14.20;45.73;102888.84;5068115;28;20032;-52
2023/03/01 09:42:34;;;;;;;28.67;15.40;;;;;;;14.23;44.06;102885.84;5065324;28;20028;-51
2023/03/01 09:45:07;;;;;;;27.92;15.43;;;;;;;13.98;43.97;102886.59;5068096;28;20057;-53
2023/03/01 09:47:35;;;;;;;24.30;14.63;;;;;;;14.09;43.55;102883.69;5062909;28;20028;-51
2023/03/01 09:50:12;;;;;;;26.17;14.35;;;;;;;14.16;43.74;102889.31;5062383;28;20598;-51
2023/03/01 09:52:42;;;;;;;31.13;15.73;;;;;;;14.16;43.75;102887.44;5069339;28;20024;-51
2023/03/01 09:55:13;;;;;;;25.58;13.65;;;;;;;13.89;42.62;102877.56;5061193;28;20086;-51
2023/03/01 09:57:57;;;;;;;33.10;16.13;;;;;;;13.87;45.07;102870.59;5060914;28;20056;-51
2023/03/01 10:00:45;;;;;;;28.95;16.27;;;;;;;14.17;43.93;102864.81;5070781;28;20031;-50
2023/03/01 10:03:16;;;;;;;29.13;15.32;;;;;;;13.81;45.05;102870.22;5061320;28;20032;-50
2023/03/01 10:05:57;;;;;;;29.98;15.60;;;;;;;13.21;45.75;102856.31;5067333;28;20106;-53
2023/03/01 10:08:36;;;;;;;26.33;15.70;;;;;;;12.66;46.84;102865.19;5069062;28;20043;-51
2023/03/01 10:11:03;;;;;;;31.40;15.43;;;;;;;12.02;46.99;102858.59;5069565;28;20055;-51
2023/03/01 10:14:01;;;;;;;25.70;15.27;;;;;;;11.72;48.69;102864.13;5069042;28;20108;-51
2023/03/01 10:16:48;;;;;;;31.95;15.70;;;;;;;11.67;50.12;102859.13;4999604;28;20087;-53
2023/03/01 10:19:31;;;;;;;35.85;16.85;;;;;;;11.80;50.77;102851.63;5058423;28;20071;-51
2023/03/01 10:22:03;;;;;;;33.65;16.65;;;;;;;11.98;51.29;102848.22;5073087;28;20383;-50
2023/03/01 10:24:32;;;;;;;26.45;14.15;;;;;;;11.47;49.36;102852.84;5071817;28;20059;-51
2023/03/01 10:27:02;;;;;;;32.80;14.77;;;;;;;10.85;50.17;102848.50;5071795;28;20461;-51
2023/03/01 10:29:50;;;;;;;34.13;16.45;;;;;;;10.75;53.21;102840.41;5073240;28;20467;-51
2023/03/01 10:32:17;;;;;;;28.25;14.43;;;;;;;10.96;53.14;102838.50;5060206;28;20064;-52
2023/03/01 10:34:42;;;;;;;29.05;14.18;;;;;;;11.24;52.32;102830.63;5071729;28;20031;-52
2023/03/01 10:37:13;;;;;;;26.10;14.23;;;;;;;11.01;52.39;102824.63;5072756;28;20051;-51
2023/03/01 10:40:18;;;;;;;26.23;14.13;;;;;;;11.03;53.31;102817.25;5072943;28;20024;-50
2023/03/01 10:42:48;;;;;;;26.58;14.00;;;;;;;11.30;52.43;102815.78;4990769;28;20030;-51
2023/03/01 10:45:34;;;;;;;37.83;14.65;;;;;;;11.60;52.29;102802.19;4990928;28;20030;-51
2023/03/01 10:48:19;;;;;;;22.42;13.52;;;;;;;11.91;51.17;102809.34;5042852;28;20052;-51
2023/03/01 10:50:46;;;;;;;25.75;13.35;;;;;;;11.74;48.92;102818.94;5072774;28;20020;-53
2023/03/01 10:53:29;;;;;;;25.15;13.23;;;;;;;10.63;50.30;102815.38;5072548;28;20024;-53
2023/03/01 10:56:14;;;;;;;23.20;13.27;;;;;;;10.09;51.17;102809.22;5072778;28;20115;-50
2023/03/01 10:58:56;;;;;;;23.00;13.00;;;;;;;9.93;52.14;102810.66;5072758;28;20085;-51
2023/03/01 11:01:31;;;;;;;27.15;13.75;;;;;;;9.87;51.36;102810.19;5072773;28;20016;-53
2023/03/01 11:04:11;;;;;;;21.95;12.75;;;;;;;9.85;53.40;102804.06;5072461;28;20035;-51
2023/03/01 11:06:38;;;;;;;23.35;12.30;;;;;;;10.10;51.37;102804.69;5072329;28;20037;-51
2023/03/01 11:09:20;;;;;;;20.10;12.93;;;;;;;10.82;51.73;102813.75;5072119;28;20028;-52